sensor_id;sensor_type;location;lat;lon;timestamp;pressure;altitude;pressure_sealevel;temperature;humidity
49979;BME280;35869;50.990;6.962;2022-11-15T00:00:09;100683.13;;;9.38;100.00
49979;BME280;35869;50.990;6.962;2022-11-15T00:05:10;100679.50;;;9.42;100.00
49979;BME280;35869;50.990;6.962;2022-11-15T00:10:10;100673.22;;;9.47;100.00
49979;BME280;35869;50.990;6.962;2022-11-15T00:15:10;100682.00;;;9.45;99.32
49979;BME280;35869;50.990;6.962;2022-11-15T00:20:10;100685.69;;;9.59;100.00
49979;BME280;35869;50.990;6.962;2022-11-15T00:25:11;100690.38;;;9.51;100.00
49979;BME280;35869;50.990;6.962;2022-11-15T00:30:11;100675.31;;;9.59;100.00
49979;BME280;35869;50.990;6.962;2022-11-15T00:35:12;100679.66;;;9.59;100.00
49979;BME280;35869;50.990;6.962;2022-11-15T00:40:13;100682.75;;;9.69;100.00
49979;BME280;35869;50.990;6.962;2022-11-15T00:45:13;100673.72;;;9.77;100.00
49979;BME280;35869;50.990;6.962;2022-11-15T00:50:14;100671.59;;;9.87;100.00
49979;BME280;35869;50.990;6.962;2022-11-15T00:55:17;100669.66;;;9.92;100.00
49979;BME280;35869;50.990;6.962;2022-11-15T01:00:18;100654.19;;;9.89;100.00
49979;BME280;35869;50.990;6.962;2022-11-15T01:05:18;100659.91;;;9.97;100.00
49979;BME280;35869;50.990;6.962;2022-11-15T01:10:18;100660.41;;;10.05;100.00
49979;BME280;35869;50.990;6.962;2022-11-15T01:15:19;100657.44;;;10.14;100.00
49979;BME280;35869;50.990;6.962;2022-11-15T01:20:19;100650.34;;;10.18;100.00
49979;BME280;35869;50.990;6.962;2022-11-15T01:25:19;100650.75;;;10.29;100.00
49979;BME280;35869;50.990;6.962;2022-11-15T01:30:19;100651.75;;;10.27;100.00
49979;BME280;35869;50.990;6.962;2022-11-15T01:35:20;100651.75;;;10.27;100.00
49979;BME280;35869;50.990;6.962;2022-11-15T01:40:20;100650.19;;;10.41;100.00
49979;BME280;35869;50.990;6.962;2022-11-15T01:45:21;100644.16;;;10.41;100.00
49979;BME280;35869;50.990;6.962;2022-11-15T01:50:25;100642.13;;;10.48;100.00
49979;BME280;35869;50.990;6.962;2022-11-15T01:55:27;100634.84;;;10.56;100.00
49979;BME280;35869;50.990;6.962;2022-11-15T02:00:29;100626.47;;;10.49;100.00
49979;BME280;35869;50.990;6.962;2022-11-15T02:05:30;100622.63;;;10.58;100.00
49979;BME280;35869;50.990;6.962;2022-11-15T02:10:31;100613.78;;;10.62;100.00
49979;BME280;35869;50.990;6.962;2022-11-15T02:15:40;100609.06;;;10.70;100.00
49979;BME280;35869;50.990;6.962;2022-11-15T02:21:01;100593.38;;;10.72;100.00
49979;BME280;35869;50.990;6.962;2022-11-15T02:36:28;100593.88;;;10.80;100.00
49979;BME280;35869;50.990;6.962;2022-11-15T02:41:45;100590.72;;;10.73;100.00
49979;BME280;35869;50.990;6.962;2022-11-15T02:46:56;100582.56;;;10.81;100.00
49979;BME280;35869;50.990;6.962;2022-11-15T02:51:57;100584.09;;;10.85;100.00
49979;BME280;35869;50.990;6.962;2022-11-15T02:57:03;100572.16;;;10.81;100.00
49979;BME280;35869;50.990;6.962;2022-11-15T03:02:18;100563.53;;;10.80;100.00
49979;BME280;35869;50.990;6.962;2022-11-15T03:07:32;100562.53;;;10.83;100.00
49979;BME280;35869;50.990;6.962;2022-11-15T03:23:05;100561.31;;;10.90;100.00
49979;BME280;35869;50.990;6.962;2022-11-15T03:28:09;100568.06;;;10.94;100.00
49979;BME280;35869;50.990;6.962;2022-11-15T03:33:11;100567.75;;;11.00;100.00
49979;BME280;35869;50.990;6.962;2022-11-15T03:38:26;100563.31;;;11.02;100.00
49979;BME280;35869;50.990;6.962;2022-11-15T03:43:55;100560.97;;;10.98;100.00
49979;BME280;35869;50.990;6.962;2022-11-15T03:49:15;100554.94;;;11.14;100.00
49979;BME280;35869;50.990;6.962;2022-11-15T03:54:17;100551.53;;;11.12;100.00
49979;BME280;35869;50.990;6.962;2022-11-15T03:59:17;100556.13;;;11.07;100.00
49979;BME280;35869;50.990;6.962;2022-11-15T04:04:17;100554.44;;;11.06;100.00
49979;BME280;35869;50.990;6.962;2022-11-15T04:09:18;100550.31;;;11.19;100.00
49979;BME280;35869;50.990;6.962;2022-11-15T04:14:18;100546.66;;;11.24;100.00
49979;BME280;35869;50.990;6.962;2022-11-15T04:19:18;100545.44;;;11.31;100.00
49979;BME280;35869;50.990;6.962;2022-11-15T04:24:18;100536.03;;;11.28;100.00
49979;BME280;35869;50.990;6.962;2022-11-15T04:29:19;100526.47;;;11.29;100.00
49979;BME280;35869;50.990;6.962;2022-11-15T04:34:19;100529.81;;;11.31;100.00
49979;BME280;35869;50.990;6.962;2022-11-15T04:39:19;100529.16;;;11.27;100.00
49979;BME280;35869;50.990;6.962;2022-11-15T04:44:19;100533.19;;;11.33;100.00
49979;BME280;35869;50.990;6.962;2022-11-15T04:49:20;100527.75;;;11.37;100.00
49979;BME280;35869;50.990;6.962;2022-11-15T04:54:20;100537.88;;;11.43;100.00
49979;BME280;35869;50.990;6.962;2022-11-15T04:59:20;100536.09;;;11.44;100.00
49979;BME280;35869;50.990;6.962;2022-11-15T05:04:20;100547.19;;;11.47;100.00
49979;BME280;35869;50.990;6.962;2022-11-15T05:09:21;100538.63;;;11.45;100.00
49979;BME280;35869;50.990;6.962;2022-11-15T05:14:21;100546.22;;;11.50;100.00
49979;BME280;35869;50.990;6.962;2022-11-15T05:19:21;100539.28;;;11.49;100.00
49979;BME280;35869;50.990;6.962;2022-11-15T05:24:21;100545.81;;;11.58;100.00
49979;BME280;35869;50.990;6.962;2022-11-15T05:29:22;100538.84;;;11.58;100.00
49979;BME280;35869;50.990;6.962;2022-11-15T05:34:22;100540.38;;;11.45;100.00
49979;BME280;35869;50.990;6.962;2022-11-15T05:39:22;100535.00;;;11.48;100.00
49979;BME280;35869;50.990;6.962;2022-11-15T05:44:23;100541.97;;;11.47;100.00
49979;BME280;35869;50.990;6.962;2022-11-15T05:49:26;100541.00;;;11.50;100.00
49979;BME280;35869;50.990;6.962;2022-11-15T05:54:27;100538.41;;;11.50;100.00
49979;BME280;35869;50.990;6.962;2022-11-15T05:59:31;100534.25;;;11.46;100.00
49979;BME280;35869;50.990;6.962;2022-11-15T06:04:32;100541.97;;;11.47;100.00
49979;BME280;35869;50.990;6.962;2022-11-15T06:09:33;100543.00;;;11.45;100.00
49979;BME280;35869;50.990;6.962;2022-11-15T06:14:33;100551.88;;;11.41;100.00
49979;BME280;35869;50.990;6.962;2022-11-15T06:19:33;100555.69;;;11.34;100.00
49979;BME280;35869;50.990;6.962;2022-11-15T06:24:33;100567.16;;;11.30;100.00
49979;BME280;35869;50.990;6.962;2022-11-15T06:29:33;100568.84;;;11.31;100.00
49979;BME280;35869;50.990;6.962;2022-11-15T06:34:34;100573.72;;;11.19;100.00
49979;BME280;35869;50.990;6.962;2022-11-15T06:39:34;100574.59;;;11.20;100.00
49979;BME280;35869;50.990;6.962;2022-11-15T06:44:34;100577.34;;;11.17;100.00
49979;BME280;35869;50.990;6.962;2022-11-15T06:49:34;100586.28;;;11.11;100.00
49979;BME280;35869;50.990;6.962;2022-11-15T06:54:35;100583.84;;;11.08;100.00
49979;BME280;35869;50.990;6.962;2022-11-15T06:59:35;100592.53;;;11.07;100.00
49979;BME280;35869;50.990;6.962;2022-11-15T07:04:35;100590.25;;;11.01;100.00
49979;BME280;35869;50.990;6.962;2022-11-15T07:09:35;100592.38;;;10.93;100.00
49979;BME280;35869;50.990;6.962;2022-11-15T07:14:36;100602.63;;;10.96;100.00
49979;BME280;35869;50.990;6.962;2022-11-15T07:19:36;100614.00;;;10.93;100.00
49979;BME280;35869;50.990;6.962;2022-11-15T07:24:36;100619.59;;;10.86;100.00
49979;BME280;35869;50.990;6.962;2022-11-15T07:29:36;100617.13;;;10.83;100.00
49979;BME280;35869;50.990;6.962;2022-11-15T07:34:37;100619.88;;;10.80;100.00
49979;BME280;35869;50.990;6.962;2022-11-15T07:39:37;100632.88;;;10.80;100.00
49979;BME280;35869;50.990;6.962;2022-11-15T07:44:37;100634.69;;;10.78;100.00
49979;BME280;35869;50.990;6.962;2022-11-15T07:49:37;100642.84;;;10.70;100.00
49979;BME280;35869;50.990;6.962;2022-11-15T07:54:38;100639.53;;;10.66;100.00
49979;BME280;35869;50.990;6.962;2022-11-15T07:59:38;100636.16;;;10.64;100.00
49979;BME280;35869;50.990;6.962;2022-11-15T08:04:38;100637.22;;;10.60;100.00
49979;BME280;35869;50.990;6.962;2022-11-15T08:09:38;100634.56;;;10.62;100.00
49979;BME280;35869;50.990;6.962;2022-11-15T08:14:39;100632.38;;;10.53;100.00
49979;BME280;35869;50.990;6.962;2022-11-15T08:19:39;100631.97;;;10.62;100.00
49979;BME280;35869;50.990;6.962;2022-11-15T08:24:39;100633.84;;;10.58;100.00
49979;BME280;35869;50.990;6.962;2022-11-15T08:29:44;100626.63;;;10.65;100.00
49979;BME280;35869;50.990;6.962;2022-11-15T08:34:44;100627.63;;;10.62;100.00
49979;BME280;35869;50.990;6.962;2022-11-15T08:39:44;100618.91;;;10.63;100.00
49979;BME280;35869;50.990;6.962;2022-11-15T08:44:45;100624.19;;;10.62;100.00
49979;BME280;35869;50.990;6.962;2022-11-15T08:49:45;100620.38;;;10.69;100.00
49979;BME280;35869;50.990;6.962;2022-11-15T08:54:45;100610.94;;;10.66;100.00
49979;BME280;35869;50.990;6.962;2022-11-15T08:59:45;100601.34;;;10.68;100.00
49979;BME280;35869;50.990;6.962;2022-11-15T09:04:46;100593.25;;;10.75;100.00
49979;BME280;35869;50.990;6.962;2022-11-15T09:09:46;100595.97;;;10.72;100.00
49979;BME280;35869;50.990;6.962;2022-11-15T09:14:46;100594.22;;;10.72;100.00
49979;BME280;35869;50.990;6.962;2022-11-15T09:19:46;100592.78;;;10.84;100.00
49979;BME280;35869;50.990;6.962;2022-11-15T09:24:47;100586.72;;;10.85;100.00
49979;BME280;35869;50.990;6.962;2022-11-15T09:29:47;100584.09;;;10.85;100.00
49979;BME280;35869;50.990;6.962;2022-11-15T09:34:47;100582.06;;;10.91;100.00
49979;BME280;35869;50.990;6.962;2022-11-15T09:39:47;100580.09;;;10.97;100.00
49979;BME280;35869;50.990;6.962;2022-11-15T09:44:59;100567.63;;;11.03;99.43
49979;BME280;35869;50.990;6.962;2022-11-15T09:50:10;100556.22;;;11.06;98.23
49979;BME280;35869;50.990;6.962;2022-11-15T09:55:12;100547.25;;;10.94;98.83
49979;BME280;35869;50.990;6.962;2022-11-15T10:00:20;100541.53;;;11.05;97.10
49979;BME280;35869;50.990;6.962;2022-11-15T10:05:23;100521.88;;;11.16;96.38
49979;BME280;35869;50.990;6.962;2022-11-15T10:15:27;100504.72;;;11.30;94.13
49979;BME280;35869;50.990;6.962;2022-11-15T10:20:29;100494.63;;;11.41;92.45
49979;BME280;35869;50.990;6.962;2022-11-15T10:25:34;100493.88;;;11.21;92.98
49979;BME280;35869;50.990;6.962;2022-11-15T10:30:40;100492.75;;;11.43;91.14
49979;BME280;35869;50.990;6.962;2022-11-15T10:35:40;100494.69;;;11.39;93.41
49979;BME280;35869;50.990;6.962;2022-11-15T10:40:41;100486.06;;;11.39;91.54
49979;BME280;35869;50.990;6.962;2022-11-15T10:45:42;100480.09;;;11.70;87.96
49979;BME280;35869;50.990;6.962;2022-11-15T10:50:44;100476.72;;;11.68;89.36
49979;BME280;35869;50.990;6.962;2022-11-15T10:55:50;100470.59;;;11.69;90.04
49979;BME280;35869;50.990;6.962;2022-11-15T11:00:52;100453.56;;;11.79;88.89
49979;BME280;35869;50.990;6.962;2022-11-15T11:06:10;100456.66;;;11.70;88.51
49979;BME280;35869;50.990;6.962;2022-11-15T11:11:10;100454.41;;;11.80;87.01
49979;BME280;35869;50.990;6.962;2022-11-15T11:21:18;100440.16;;;11.87;86.51
49979;BME280;35869;50.990;6.962;2022-11-15T11:32:11;100427.28;;;11.84;84.57
49979;BME280;35869;50.990;6.962;2022-11-15T11:42:55;100414.13;;;12.03;81.03
49979;BME280;35869;50.990;6.962;2022-11-15T11:53:47;100410.25;;;11.94;83.97
49979;BME280;35869;50.990;6.962;2022-11-15T11:58:50;100401.09;;;11.87;83.47
49979;BME280;35869;50.990;6.962;2022-11-15T12:03:59;100401.69;;;11.92;81.94
49979;BME280;35869;50.990;6.962;2022-11-15T12:14:34;100380.56;;;12.12;85.25
49979;BME280;35869;50.990;6.962;2022-11-15T12:19:36;100371.16;;;12.25;83.41
49979;BME280;35869;50.990;6.962;2022-11-15T12:24:48;100356.25;;;12.43;85.33
49979;BME280;35869;50.990;6.962;2022-11-15T12:29:52;100343.13;;;12.59;82.92
49979;BME280;35869;50.990;6.962;2022-11-15T12:34:54;100339.34;;;12.65;80.59
49979;BME280;35869;50.990;6.962;2022-11-15T12:45:35;100311.16;;;12.86;81.11
49979;BME280;35869;50.990;6.962;2022-11-15T13:07:05;100261.38;;;13.17;78.40
49979;BME280;35869;50.990;6.962;2022-11-15T13:12:10;100261.19;;;13.06;82.41
49979;BME280;35869;50.990;6.962;2022-11-15T13:22:20;100260.34;;;13.34;80.62
49979;BME280;35869;50.990;6.962;2022-11-15T13:27:20;100246.47;;;13.33;80.08
49979;BME280;35869;50.990;6.962;2022-11-15T13:32:20;100240.03;;;13.39;82.88
49979;BME280;35869;50.990;6.962;2022-11-15T13:42:21;100232.06;;;13.55;79.68
49979;BME280;35869;50.990;6.962;2022-11-15T13:47:25;100224.72;;;13.60;80.40
49979;BME280;35869;50.990;6.962;2022-11-15T13:52:33;100216.56;;;13.52;82.53
49979;BME280;35869;50.990;6.962;2022-11-15T13:57:42;100213.38;;;13.61;80.27
49979;BME280;35869;50.990;6.962;2022-11-15T14:02:43;100202.16;;;13.59;83.44
49979;BME280;35869;50.990;6.962;2022-11-15T14:07:55;100192.50;;;13.61;80.41
49979;BME280;35869;50.990;6.962;2022-11-15T14:12:56;100182.13;;;13.59;81.26
49979;BME280;35869;50.990;6.962;2022-11-15T14:17:56;100173.56;;;13.57;86.50
49979;BME280;35869;50.990;6.962;2022-11-15T14:23:05;100167.63;;;13.68;84.10
49979;BME280;35869;50.990;6.962;2022-11-15T14:33:32;100142.06;;;13.73;83.30
49979;BME280;35869;50.990;6.962;2022-11-15T14:38:33;100137.13;;;13.69;85.10
49979;BME280;35869;50.990;6.962;2022-11-15T14:43:33;100129.00;;;13.73;82.61
49979;BME280;35869;50.990;6.962;2022-11-15T14:48:33;100130.13;;;13.69;79.75
49979;BME280;35869;50.990;6.962;2022-11-15T14:53:33;100132.03;;;13.67;83.52
49979;BME280;35869;50.990;6.962;2022-11-15T14:58:34;100121.75;;;13.64;84.55
49979;BME280;35869;50.990;6.962;2022-11-15T15:03:34;100111.13;;;13.67;82.90
49979;BME280;35869;50.990;6.962;2022-11-15T15:08:34;100098.47;;;13.61;83.98
49979;BME280;35869;50.990;6.962;2022-11-15T15:13:34;100090.84;;;13.58;80.85
49979;BME280;35869;50.990;6.962;2022-11-15T15:18:35;100082.06;;;13.59;80.06
49979;BME280;35869;50.990;6.962;2022-11-15T15:23:35;100074.22;;;13.59;81.29
49979;BME280;35869;50.990;6.962;2022-11-15T15:28:35;100070.59;;;13.49;82.44
49979;BME280;35869;50.990;6.962;2022-11-15T15:33:36;100066.19;;;13.49;82.95
49979;BME280;35869;50.990;6.962;2022-11-15T15:38:36;100037.38;;;13.51;81.17
49979;BME280;35869;50.990;6.962;2022-11-15T15:43:36;100036.94;;;13.44;81.46
49979;BME280;35869;50.990;6.962;2022-11-15T15:48:37;100043.59;;;13.36;83.62
49979;BME280;35869;50.990;6.962;2022-11-15T15:53:37;100037.44;;;13.37;82.05
49979;BME280;35869;50.990;6.962;2022-11-15T15:58:38;100040.28;;;13.33;83.05
49979;BME280;35869;50.990;6.962;2022-11-15T16:03:38;100024.91;;;13.29;85.08
49979;BME280;35869;50.990;6.962;2022-11-15T16:08:38;100027.94;;;13.23;82.98
49979;BME280;35869;50.990;6.962;2022-11-15T16:13:38;100012.47;;;13.20;83.70
49979;BME280;35869;50.990;6.962;2022-11-15T16:18:38;100014.44;;;13.16;83.26
49979;BME280;35869;50.990;6.962;2022-11-15T16:23:39;100016.84;;;13.19;83.64
49979;BME280;35869;50.990;6.962;2022-11-15T16:28:39;100011.16;;;13.13;83.54
49979;BME280;35869;50.990;6.962;2022-11-15T16:33:40;100005.13;;;13.12;83.46
49979;BME280;35869;50.990;6.962;2022-11-15T16:38:40;100007.94;;;13.09;83.66
49979;BME280;35869;50.990;6.962;2022-11-15T16:43:40;100006.56;;;13.03;85.03
49979;BME280;35869;50.990;6.962;2022-11-15T16:48:40;99999.44;;;12.93;85.19
49979;BME280;35869;50.990;6.962;2022-11-15T16:53:41;100002.91;;;13.06;84.44
49979;BME280;35869;50.990;6.962;2022-11-15T16:58:41;99990.63;;;13.08;84.32
49979;BME280;35869;50.990;6.962;2022-11-15T17:03:41;99993.44;;;13.05;85.30
49979;BME280;35869;50.990;6.962;2022-11-15T17:08:42;99993.44;;;13.05;83.97
49979;BME280;35869;50.990;6.962;2022-11-15T17:13:42;99993.09;;;12.97;83.94
49979;BME280;35869;50.990;6.962;2022-11-15T17:18:43;99998.09;;;13.00;85.66
49979;BME280;35869;50.990;6.962;2022-11-15T17:23:44;99995.31;;;13.03;84.47
49979;BME280;35869;50.990;6.962;2022-11-15T17:28:44;99997.38;;;12.98;86.23
49979;BME280;35869;50.990;6.962;2022-11-15T17:33:44;99999.25;;;12.96;85.35
49979;BME280;35869;50.990;6.962;2022-11-15T17:38:45;100000.72;;;13.00;85.61
49979;BME280;35869;50.990;6.962;2022-11-15T17:43:45;99994.78;;;12.98;85.48
49979;BME280;35869;50.990;6.962;2022-11-15T17:48:46;100000.94;;;12.97;86.66
49979;BME280;35869;50.990;6.962;2022-11-15T17:53:47;99994.13;;;12.94;87.84
49979;BME280;35869;50.990;6.962;2022-11-15T18:03:48;99987.53;;;12.89;89.90
49979;BME280;35869;50.990;6.962;2022-11-15T18:08:50;99979.72;;;12.89;90.12
49979;BME280;35869;50.990;6.962;2022-11-15T18:13:58;99982.72;;;12.82;91.52
49979;BME280;35869;50.990;6.962;2022-11-15T18:18:59;99979.38;;;12.80;91.57
49979;BME280;35869;50.990;6.962;2022-11-15T18:24:01;99976.06;;;12.78;92.33
49979;BME280;35869;50.990;6.962;2022-11-15T18:29:03;99974.34;;;12.77;92.76
49979;BME280;35869;50.990;6.962;2022-11-15T18:34:03;99959.34;;;12.68;93.74
49979;BME280;35869;50.990;6.962;2022-11-15T18:39:04;99957.66;;;12.67;94.15
49979;BME280;35869;50.990;6.962;2022-11-15T18:44:04;99948.16;;;12.66;94.88
49979;BME280;35869;50.990;6.962;2022-11-15T18:49:05;99948.53;;;12.60;96.04
49979;BME280;35869;50.990;6.962;2022-11-15T18:54:05;99947.50;;;12.50;97.20
49979;BME280;35869;50.990;6.962;2022-11-15T18:59:06;99939.03;;;12.46;97.26
49979;BME280;35869;50.990;6.962;2022-11-15T19:04:12;99932.25;;;12.44;97.25
49979;BME280;35869;50.990;6.962;2022-11-15T19:09:14;99927.34;;;12.39;98.75
49979;BME280;35869;50.990;6.962;2022-11-15T19:14:16;99922.00;;;12.41;98.70
49979;BME280;35869;50.990;6.962;2022-11-15T19:19:18;99919.38;;;12.28;99.92
49979;BME280;35869;50.990;6.962;2022-11-15T19:24:19;99921.88;;;12.30;99.64
49979;BME280;35869;50.990;6.962;2022-11-15T19:29:19;99919.53;;;12.25;99.63
49979;BME280;35869;50.990;6.962;2022-11-15T19:34:20;99910.16;;;12.22;99.65
49979;BME280;35869;50.990;6.962;2022-11-15T19:39:20;99910.75;;;12.13;100.00
49979;BME280;35869;50.990;6.962;2022-11-15T19:44:20;99902.03;;;12.14;100.00
49979;BME280;35869;50.990;6.962;2022-11-15T19:49:20;99905.03;;;12.08;100.00
49979;BME280;35869;50.990;6.962;2022-11-15T19:54:20;99903.28;;;12.21;100.00
49979;BME280;35869;50.990;6.962;2022-11-15T19:59:22;99891.06;;;12.09;100.00
49979;BME280;35869;50.990;6.962;2022-11-15T20:04:22;99892.56;;;11.99;100.00
49979;BME280;35869;50.990;6.962;2022-11-15T20:09:22;99888.09;;;12.01;100.00
49979;BME280;35869;50.990;6.962;2022-11-15T20:14:22;99882.47;;;12.07;100.00
49979;BME280;35869;50.990;6.962;2022-11-15T20:19:23;99880.91;;;12.05;100.00
49979;BME280;35869;50.990;6.962;2022-11-15T20:24:23;99880.91;;;12.05;100.00
49979;BME280;35869;50.990;6.962;2022-11-15T20:29:23;99885.31;;;12.04;100.00
49979;BME280;35869;50.990;6.962;2022-11-15T20:34:23;99880.38;;;11.99;100.00
49979;BME280;35869;50.990;6.962;2022-11-15T20:39:24;99879.72;;;11.96;100.00
49979;BME280;35869;50.990;6.962;2022-11-15T20:44:24;99876.38;;;11.94;100.00
49979;BME280;35869;50.990;6.962;2022-11-15T20:49:24;99870.63;;;11.89;100.00
49979;BME280;35869;50.990;6.962;2022-11-15T20:54:24;99876.50;;;11.92;100.00
49979;BME280;35869;50.990;6.962;2022-11-15T20:59:25;99875.44;;;11.95;100.00
49979;BME280;35869;50.990;6.962;2022-11-15T21:04:25;99864.31;;;11.93;100.00
49979;BME280;35869;50.990;6.962;2022-11-15T21:09:25;99860.97;;;11.91;100.00
49979;BME280;35869;50.990;6.962;2022-11-15T21:14:25;99854.84;;;11.92;100.00
49979;BME280;35869;50.990;6.962;2022-11-15T21:19:27;99853.25;;;11.89;100.00
49979;BME280;35869;50.990;6.962;2022-11-15T21:24:27;99848.13;;;11.88;100.00
49979;BME280;35869;50.990;6.962;2022-11-15T21:29:28;99846.47;;;11.87;100.00
49979;BME280;35869;50.990;6.962;2022-11-15T21:34:28;99836.88;;;11.87;100.00
49979;BME280;35869;50.990;6.962;2022-11-15T21:39:28;99832.63;;;11.86;100.00
49979;BME280;35869;50.990;6.962;2022-11-15T21:44:28;99828.59;;;11.81;100.00
49979;BME280;35869;50.990;6.962;2022-11-15T21:49:29;99818.19;;;11.81;100.00
49979;BME280;35869;50.990;6.962;2022-11-15T21:54:29;99804.44;;;11.79;100.00
49979;BME280;35869;50.990;6.962;2022-11-15T21:59:29;99806.88;;;11.82;100.00
49979;BME280;35869;50.990;6.962;2022-11-15T22:04:29;99796.72;;;11.77;100.00
49979;BME280;35869;50.990;6.962;2022-11-15T22:09:30;99791.91;;;11.71;100.00
49979;BME280;35869;50.990;6.962;2022-11-15T22:14:30;99786.16;;;11.66;100.00
49979;BME280;35869;50.990;6.962;2022-11-15T22:19:30;99776.81;;;11.76;100.00
49979;BME280;35869;50.990;6.962;2022-11-15T22:24:30;99779.53;;;11.74;100.00
49979;BME280;35869;50.990;6.962;2022-11-15T22:29:31;99777.94;;;11.72;100.00
49979;BME280;35869;50.990;6.962;2022-11-15T22:34:31;99776.56;;;11.66;100.00
49979;BME280;35869;50.990;6.962;2022-11-15T22:39:31;99768.69;;;11.68;100.00
49979;BME280;35869;50.990;6.962;2022-11-15T22:44:32;99756.50;;;11.68;100.00
49979;BME280;35869;50.990;6.962;2022-11-15T22:49:32;99758.06;;;11.71;100.00
49979;BME280;35869;50.990;6.962;2022-11-15T22:54:32;99749.63;;;11.67;100.00
49979;BME280;35869;50.990;6.962;2022-11-15T22:59:33;99755.66;;;11.68;100.00
49979;BME280;35869;50.990;6.962;2022-11-15T23:04:33;99746.28;;;11.65;100.00
49979;BME280;35869;50.990;6.962;2022-11-15T23:09:33;99740.88;;;11.68;100.00
49979;BME280;35869;50.990;6.962;2022-11-15T23:14:33;99739.31;;;11.66;100.00
49979;BME280;35869;50.990;6.962;2022-11-15T23:19:34;99730.59;;;11.67;100.00
49979;BME280;35869;50.990;6.962;2022-11-15T23:24:34;99730.94;;;11.61;100.00
49979;BME280;35869;50.990;6.962;2022-11-15T23:29:35;99726.59;;;11.61;100.00
49979;BME280;35869;50.990;6.962;2022-11-15T23:34:38;99719.53;;;11.63;100.00
49979;BME280;35869;50.990;6.962;2022-11-15T23:39:39;99714.31;;;11.63;100.00
49979;BME280;35869;50.990;6.962;2022-11-15T23:44:39;99705.84;;;11.60;100.00
49979;BME280;35869;50.990;6.962;2022-11-15T23:49:39;99702.25;;;11.62;100.00
49979;BME280;35869;50.990;6.962;2022-11-15T23:54:40;99700.22;;;11.53;100.00
49979;BME280;35869;50.990;6.962;2022-11-15T23:59:41;99693.16;;;11.55;100.00
